Minnehaha Springs, West Virginia
Current Conditions -  °F | °C
As of 6:15 AM on Thursday 23 Oct 2014 (Local Time) from KHSP Reporting Station
Overcast Overcast  
Wind Chill: 29°   Ceiling: 600
Heat Index: 38°   Visibility: 10mi
Dew Point: 37°   Wind: 16mph
Humidity: 93%   Direction: 290°WNW
Pressure: 30.01"   Gusts: 28mph
Location:  38.2213°N, 80.0565°W
Report Text: KHSP 231015Z AUTO 29014G24KT 10SM OVC006 04/03 A3001 RMK AO2 T00350025
Loading
Personal Weather Stations






























Interactive Weather Map
Tropical Storm Tracking
New forecast layout! Learn more

10-Day Weather Forecast

Advertisements
Track Severe Weather on mobile